sensor_id;sensor_type;location;lat;lon;timestamp;P1;durP1;ratioP1;P2;durP2;ratioP2
51298;SDS011;37382;45.192;9.790;2023-08-20T00:02:02;43.50;;;27.02;;
51298;SDS011;37382;45.192;9.790;2023-08-20T00:04:35;32.25;;;25.50;;
51298;SDS011;37382;45.192;9.790;2023-08-20T00:07:04;36.67;;;26.40;;
51298;SDS011;37382;45.192;9.790;2023-08-20T00:09:31;37.90;;;27.23;;
51298;SDS011;37382;45.192;9.790;2023-08-20T00:12:00;40.60;;;28.52;;
51298;SDS011;37382;45.192;9.790;2023-08-20T00:17:34;44.20;;;28.13;;
51298;SDS011;37382;45.192;9.790;2023-08-20T00:20:04;36.97;;;27.57;;
51298;SDS011;37382;45.192;9.790;2023-08-20T00:22:40;30.65;;;25.98;;
51298;SDS011;37382;45.192;9.790;2023-08-20T00:25:09;33.60;;;27.17;;
51298;SDS011;37382;45.192;9.790;2023-08-20T00:27:38;36.95;;;28.38;;
51298;SDS011;37382;45.192;9.790;2023-08-20T00:30:07;42.45;;;27.38;;
51298;SDS011;37382;45.192;9.790;2023-08-20T00:32:35;33.85;;;27.63;;
51298;SDS011;37382;45.192;9.790;2023-08-20T00:35:04;32.65;;;27.08;;
51298;SDS011;37382;45.192;9.790;2023-08-20T00:37:36;38.88;;;28.55;;
51298;SDS011;37382;45.192;9.790;2023-08-20T00:40:04;33.78;;;27.25;;
51298;SDS011;37382;45.192;9.790;2023-08-20T00:42:32;41.45;;;27.38;;
51298;SDS011;37382;45.192;9.790;2023-08-20T00:44:59;41.80;;;26.88;;
51298;SDS011;37382;45.192;9.790;2023-08-20T00:47:27;37.17;;;27.23;;
51298;SDS011;37382;45.192;9.790;2023-08-20T00:49:55;36.65;;;26.40;;
51298;SDS011;37382;45.192;9.790;2023-08-20T00:52:23;38.65;;;26.85;;
51298;SDS011;37382;45.192;9.790;2023-08-20T00:54:51;35.67;;;26.38;;
51298;SDS011;37382;45.192;9.790;2023-08-20T00:57:19;35.88;;;28.00;;
51298;SDS011;37382;45.192;9.790;2023-08-20T00:59:47;41.53;;;28.55;;
51298;SDS011;37382;45.192;9.790;2023-08-20T01:02:20;43.20;;;28.00;;
51298;SDS011;37382;45.192;9.790;2023-08-20T01:04:47;37.13;;;27.90;;
51298;SDS011;37382;45.192;9.790;2023-08-20T01:10:36;41.47;;;26.17;;
51298;SDS011;37382;45.192;9.790;2023-08-20T01:13:25;38.92;;;27.45;;
51298;SDS011;37382;45.192;9.790;2023-08-20T01:15:53;43.92;;;26.98;;
51298;SDS011;37382;45.192;9.790;2023-08-20T01:18:20;34.20;;;27.83;;
51298;SDS011;37382;45.192;9.790;2023-08-20T01:20:51;33.83;;;27.58;;
51298;SDS011;37382;45.192;9.790;2023-08-20T01:23:35;35.08;;;28.25;;
51298;SDS011;37382;45.192;9.790;2023-08-20T01:29:16;50.67;;;28.90;;
51298;SDS011;37382;45.192;9.790;2023-08-20T01:31:44;36.72;;;26.40;;
51298;SDS011;37382;45.192;9.790;2023-08-20T01:34:12;38.63;;;27.70;;
51298;SDS011;37382;45.192;9.790;2023-08-20T01:36:41;38.47;;;27.52;;
51298;SDS011;37382;45.192;9.790;2023-08-20T01:39:10;34.00;;;26.95;;
51298;SDS011;37382;45.192;9.790;2023-08-20T01:41:38;32.75;;;27.40;;
51298;SDS011;37382;45.192;9.790;2023-08-20T01:44:05;36.15;;;27.88;;
51298;SDS011;37382;45.192;9.790;2023-08-20T01:46:33;38.45;;;27.17;;
51298;SDS011;37382;45.192;9.790;2023-08-20T01:49:01;37.67;;;26.55;;
51298;SDS011;37382;45.192;9.790;2023-08-20T01:51:28;39.22;;;27.23;;
51298;SDS011;37382;45.192;9.790;2023-08-20T01:53:56;33.65;;;27.05;;
51298;SDS011;37382;45.192;9.790;2023-08-20T01:56:23;42.00;;;27.05;;
51298;SDS011;37382;45.192;9.790;2023-08-20T01:58:51;34.30;;;26.35;;
51298;SDS011;37382;45.192;9.790;2023-08-20T02:01:19;33.38;;;26.73;;
51298;SDS011;37382;45.192;9.790;2023-08-20T02:03:47;34.40;;;26.98;;
51298;SDS011;37382;45.192;9.790;2023-08-20T02:06:14;38.47;;;26.83;;
51298;SDS011;37382;45.192;9.790;2023-08-20T02:08:45;37.22;;;26.98;;
51298;SDS011;37382;45.192;9.790;2023-08-20T02:11:12;35.70;;;27.63;;
51298;SDS011;37382;45.192;9.790;2023-08-20T02:13:39;33.95;;;26.92;;
51298;SDS011;37382;45.192;9.790;2023-08-20T02:16:07;34.90;;;27.27;;
51298;SDS011;37382;45.192;9.790;2023-08-20T02:18:35;36.55;;;26.77;;
51298;SDS011;37382;45.192;9.790;2023-08-20T02:21:03;36.40;;;27.67;;
51298;SDS011;37382;45.192;9.790;2023-08-20T02:23:30;33.60;;;28.38;;
51298;SDS011;37382;45.192;9.790;2023-08-20T02:25:58;42.08;;;29.48;;
51298;SDS011;37382;45.192;9.790;2023-08-20T02:28:27;38.90;;;29.80;;
51298;SDS011;37382;45.192;9.790;2023-08-20T02:30:54;38.30;;;28.40;;
51298;SDS011;37382;45.192;9.790;2023-08-20T02:33:24;35.97;;;27.13;;
51298;SDS011;37382;45.192;9.790;2023-08-20T02:35:52;38.75;;;28.05;;
51298;SDS011;37382;45.192;9.790;2023-08-20T02:38:21;45.40;;;28.35;;
51298;SDS011;37382;45.192;9.790;2023-08-20T02:40:49;46.15;;;28.10;;
51298;SDS011;37382;45.192;9.790;2023-08-20T02:43:16;38.58;;;28.52;;
51298;SDS011;37382;45.192;9.790;2023-08-20T02:45:43;43.90;;;28.08;;
51298;SDS011;37382;45.192;9.790;2023-08-20T02:48:12;38.08;;;30.75;;
51298;SDS011;37382;45.192;9.790;2023-08-20T02:50:41;38.03;;;30.35;;
51298;SDS011;37382;45.192;9.790;2023-08-20T02:53:09;47.95;;;31.35;;
51298;SDS011;37382;45.192;9.790;2023-08-20T02:55:37;43.70;;;30.27;;
51298;SDS011;37382;45.192;9.790;2023-08-20T02:58:05;40.42;;;30.08;;
51298;SDS011;37382;45.192;9.790;2023-08-20T03:00:36;40.88;;;29.95;;
51298;SDS011;37382;45.192;9.790;2023-08-20T03:03:04;34.20;;;29.75;;
51298;SDS011;37382;45.192;9.790;2023-08-20T03:08:04;38.92;;;30.05;;
51298;SDS011;37382;45.192;9.790;2023-08-20T03:10:32;37.13;;;29.17;;
51298;SDS011;37382;45.192;9.790;2023-08-20T03:13:00;39.15;;;27.95;;
51298;SDS011;37382;45.192;9.790;2023-08-20T03:15:28;36.45;;;28.10;;
51298;SDS011;37382;45.192;9.790;2023-08-20T03:17:56;36.22;;;28.73;;
51298;SDS011;37382;45.192;9.790;2023-08-20T03:20:24;37.72;;;28.60;;
51298;SDS011;37382;45.192;9.790;2023-08-20T03:22:51;40.13;;;29.40;;
51298;SDS011;37382;45.192;9.790;2023-08-20T03:25:20;34.95;;;29.58;;
51298;SDS011;37382;45.192;9.790;2023-08-20T03:27:47;40.38;;;32.00;;
51298;SDS011;37382;45.192;9.790;2023-08-20T03:30:15;46.60;;;33.72;;
51298;SDS011;37382;45.192;9.790;2023-08-20T03:32:44;46.00;;;31.02;;
51298;SDS011;37382;45.192;9.790;2023-08-20T03:35:12;41.65;;;31.42;;
51298;SDS011;37382;45.192;9.790;2023-08-20T03:37:39;40.63;;;31.95;;
51298;SDS011;37382;45.192;9.790;2023-08-20T03:40:07;41.75;;;31.90;;
51298;SDS011;37382;45.192;9.790;2023-08-20T03:42:34;39.00;;;30.85;;
51298;SDS011;37382;45.192;9.790;2023-08-20T03:45:03;41.55;;;30.38;;
51298;SDS011;37382;45.192;9.790;2023-08-20T03:47:31;38.38;;;30.40;;
51298;SDS011;37382;45.192;9.790;2023-08-20T03:49:59;46.63;;;30.38;;
51298;SDS011;37382;45.192;9.790;2023-08-20T03:52:27;38.88;;;31.67;;
51298;SDS011;37382;45.192;9.790;2023-08-20T03:54:54;47.15;;;32.63;;
51298;SDS011;37382;45.192;9.790;2023-08-20T03:57:22;40.70;;;32.13;;
51298;SDS011;37382;45.192;9.790;2023-08-20T03:59:50;38.13;;;31.08;;
51298;SDS011;37382;45.192;9.790;2023-08-20T04:02:17;51.10;;;33.30;;
51298;SDS011;37382;45.192;9.790;2023-08-20T04:04:45;42.45;;;30.98;;
51298;SDS011;37382;45.192;9.790;2023-08-20T04:07:13;43.53;;;33.00;;
51298;SDS011;37382;45.192;9.790;2023-08-20T04:09:40;39.65;;;32.13;;
51298;SDS011;37382;45.192;9.790;2023-08-20T04:12:09;35.65;;;31.45;;
51298;SDS011;37382;45.192;9.790;2023-08-20T04:14:37;41.45;;;31.92;;
51298;SDS011;37382;45.192;9.790;2023-08-20T04:17:04;39.90;;;34.15;;
51298;SDS011;37382;45.192;9.790;2023-08-20T04:19:32;58.53;;;35.67;;
51298;SDS011;37382;45.192;9.790;2023-08-20T04:22:00;38.42;;;33.65;;
51298;SDS011;37382;45.192;9.790;2023-08-20T04:24:28;43.75;;;33.80;;
51298;SDS011;37382;45.192;9.790;2023-08-20T04:26:55;44.38;;;35.13;;
51298;SDS011;37382;45.192;9.790;2023-08-20T04:29:26;42.90;;;33.90;;
51298;SDS011;37382;45.192;9.790;2023-08-20T04:31:54;39.90;;;33.20;;
51298;SDS011;37382;45.192;9.790;2023-08-20T04:34:22;38.95;;;31.75;;
51298;SDS011;37382;45.192;9.790;2023-08-20T04:36:52;47.13;;;33.90;;
51298;SDS011;37382;45.192;9.790;2023-08-20T04:39:20;36.35;;;31.92;;
51298;SDS011;37382;45.192;9.790;2023-08-20T04:41:50;46.13;;;33.53;;
51298;SDS011;37382;45.192;9.790;2023-08-20T04:44:19;36.72;;;31.40;;
51298;SDS011;37382;45.192;9.790;2023-08-20T04:46:48;48.75;;;32.42;;
51298;SDS011;37382;45.192;9.790;2023-08-20T04:49:17;42.50;;;33.17;;
51298;SDS011;37382;45.192;9.790;2023-08-20T04:51:44;47.85;;;32.10;;
51298;SDS011;37382;45.192;9.790;2023-08-20T04:54:12;45.47;;;32.80;;
51298;SDS011;37382;45.192;9.790;2023-08-20T04:56:39;40.75;;;32.70;;
51298;SDS011;37382;45.192;9.790;2023-08-20T04:59:07;43.65;;;33.75;;
51298;SDS011;37382;45.192;9.790;2023-08-20T05:02:04;45.42;;;34.63;;
51298;SDS011;37382;45.192;9.790;2023-08-20T05:04:40;46.47;;;33.38;;
51298;SDS011;37382;45.192;9.790;2023-08-20T05:07:08;54.40;;;33.45;;
51298;SDS011;37382;45.192;9.790;2023-08-20T05:09:36;41.65;;;33.03;;
51298;SDS011;37382;45.192;9.790;2023-08-20T05:12:06;51.67;;;32.75;;
51298;SDS011;37382;45.192;9.790;2023-08-20T05:14:34;38.78;;;31.02;;
51298;SDS011;37382;45.192;9.790;2023-08-20T05:17:02;39.42;;;30.95;;
51298;SDS011;37382;45.192;9.790;2023-08-20T05:19:30;45.05;;;33.08;;
51298;SDS011;37382;45.192;9.790;2023-08-20T05:21:58;39.83;;;32.78;;
51298;SDS011;37382;45.192;9.790;2023-08-20T05:24:31;43.40;;;34.03;;
51298;SDS011;37382;45.192;9.790;2023-08-20T05:27:08;39.72;;;33.22;;
51298;SDS011;37382;45.192;9.790;2023-08-20T05:29:37;46.20;;;34.38;;
51298;SDS011;37382;45.192;9.790;2023-08-20T05:32:06;40.55;;;34.50;;
51298;SDS011;37382;45.192;9.790;2023-08-20T05:34:34;47.13;;;35.22;;
51298;SDS011;37382;45.192;9.790;2023-08-20T05:37:02;42.83;;;34.00;;
51298;SDS011;37382;45.192;9.790;2023-08-20T05:39:36;47.38;;;36.35;;
51298;SDS011;37382;45.192;9.790;2023-08-20T05:42:05;44.63;;;34.92;;
51298;SDS011;37382;45.192;9.790;2023-08-20T05:44:33;42.50;;;33.95;;
51298;SDS011;37382;45.192;9.790;2023-08-20T05:47:02;42.17;;;33.25;;
51298;SDS011;37382;45.192;9.790;2023-08-20T05:49:32;38.60;;;33.08;;
51298;SDS011;37382;45.192;9.790;2023-08-20T05:52:00;44.40;;;34.58;;
51298;SDS011;37382;45.192;9.790;2023-08-20T05:54:28;40.55;;;33.10;;
51298;SDS011;37382;45.192;9.790;2023-08-20T05:56:57;42.97;;;34.97;;
51298;SDS011;37382;45.192;9.790;2023-08-20T05:59:25;52.75;;;34.05;;
51298;SDS011;37382;45.192;9.790;2023-08-20T06:01:53;49.75;;;34.80;;
51298;SDS011;37382;45.192;9.790;2023-08-20T06:04:23;40.80;;;35.20;;
51298;SDS011;37382;45.192;9.790;2023-08-20T06:06:51;45.97;;;34.45;;
51298;SDS011;37382;45.192;9.790;2023-08-20T06:09:18;46.95;;;34.75;;
51298;SDS011;37382;45.192;9.790;2023-08-20T06:11:46;44.42;;;35.03;;
51298;SDS011;37382;45.192;9.790;2023-08-20T06:14:13;42.15;;;34.60;;
51298;SDS011;37382;45.192;9.790;2023-08-20T06:16:41;42.55;;;34.15;;
51298;SDS011;37382;45.192;9.790;2023-08-20T06:19:08;47.33;;;35.53;;
51298;SDS011;37382;45.192;9.790;2023-08-20T06:21:35;50.38;;;35.42;;
51298;SDS011;37382;45.192;9.790;2023-08-20T06:24:03;43.22;;;34.50;;
51298;SDS011;37382;45.192;9.790;2023-08-20T06:26:31;44.70;;;33.70;;
51298;SDS011;37382;45.192;9.790;2023-08-20T06:28:58;37.92;;;32.72;;
51298;SDS011;37382;45.192;9.790;2023-08-20T06:31:26;43.45;;;30.80;;
51298;SDS011;37382;45.192;9.790;2023-08-20T06:33:54;43.20;;;29.73;;
51298;SDS011;37382;45.192;9.790;2023-08-20T06:36:21;37.72;;;30.63;;
51298;SDS011;37382;45.192;9.790;2023-08-20T06:38:49;35.58;;;31.70;;
51298;SDS011;37382;45.192;9.790;2023-08-20T06:41:17;47.25;;;33.42;;
51298;SDS011;37382;45.192;9.790;2023-08-20T06:43:44;41.33;;;33.53;;
51298;SDS011;37382;45.192;9.790;2023-08-20T06:46:12;43.08;;;32.70;;
51298;SDS011;37382;45.192;9.790;2023-08-20T06:48:40;34.50;;;28.27;;
51298;SDS011;37382;45.192;9.790;2023-08-20T06:51:08;45.00;;;31.08;;
51298;SDS011;37382;45.192;9.790;2023-08-20T06:53:39;36.95;;;29.98;;
51298;SDS011;37382;45.192;9.790;2023-08-20T06:56:08;36.25;;;29.15;;
51298;SDS011;37382;45.192;9.790;2023-08-20T06:58:39;41.47;;;29.05;;
51298;SDS011;37382;45.192;9.790;2023-08-20T07:01:08;49.55;;;31.13;;
51298;SDS011;37382;45.192;9.790;2023-08-20T07:03:39;53.65;;;28.48;;
51298;SDS011;37382;45.192;9.790;2023-08-20T07:06:08;37.25;;;28.50;;
51298;SDS011;37382;45.192;9.790;2023-08-20T07:08:37;47.53;;;29.42;;
51298;SDS011;37382;45.192;9.790;2023-08-20T07:11:06;46.58;;;29.42;;
51298;SDS011;37382;45.192;9.790;2023-08-20T07:13:34;41.88;;;26.75;;
51298;SDS011;37382;45.192;9.790;2023-08-20T07:16:02;33.53;;;27.20;;
51298;SDS011;37382;45.192;9.790;2023-08-20T07:18:30;42.90;;;27.48;;
51298;SDS011;37382;45.192;9.790;2023-08-20T07:20:57;43.95;;;29.70;;
51298;SDS011;37382;45.192;9.790;2023-08-20T07:23:25;92.05;;;29.83;;
51298;SDS011;37382;45.192;9.790;2023-08-20T07:26:03;36.05;;;27.30;;
51298;SDS011;37382;45.192;9.790;2023-08-20T07:28:39;37.63;;;28.27;;
51298;SDS011;37382;45.192;9.790;2023-08-20T07:31:30;59.28;;;27.17;;
51298;SDS011;37382;45.192;9.790;2023-08-20T07:33:59;43.28;;;26.73;;
51298;SDS011;37382;45.192;9.790;2023-08-20T07:36:32;39.80;;;23.63;;
51298;SDS011;37382;45.192;9.790;2023-08-20T07:38:59;46.15;;;26.40;;
51298;SDS011;37382;45.192;9.790;2023-08-20T07:41:29;33.38;;;23.38;;
51298;SDS011;37382;45.192;9.790;2023-08-20T07:43:56;38.17;;;24.67;;
51298;SDS011;37382;45.192;9.790;2023-08-20T07:46:24;32.83;;;24.00;;
51298;SDS011;37382;45.192;9.790;2023-08-20T07:48:52;30.88;;;21.73;;
51298;SDS011;37382;45.192;9.790;2023-08-20T07:51:20;38.92;;;25.55;;
51298;SDS011;37382;45.192;9.790;2023-08-20T07:53:47;30.52;;;23.42;;
51298;SDS011;37382;45.192;9.790;2023-08-20T07:56:15;38.78;;;24.75;;
51298;SDS011;37382;45.192;9.790;2023-08-20T07:58:43;42.72;;;25.85;;
51298;SDS011;37382;45.192;9.790;2023-08-20T08:01:10;35.28;;;23.55;;
51298;SDS011;37382;45.192;9.790;2023-08-20T08:03:39;31.35;;;23.60;;
51298;SDS011;37382;45.192;9.790;2023-08-20T08:06:07;43.67;;;25.30;;
51298;SDS011;37382;45.192;9.790;2023-08-20T08:08:35;37.78;;;22.42;;
51298;SDS011;37382;45.192;9.790;2023-08-20T08:11:02;29.40;;;23.17;;
51298;SDS011;37382;45.192;9.790;2023-08-20T08:13:30;38.30;;;23.05;;
51298;SDS011;37382;45.192;9.790;2023-08-20T08:15:58;38.22;;;25.20;;
51298;SDS011;37382;45.192;9.790;2023-08-20T08:18:25;31.80;;;20.90;;
51298;SDS011;37382;45.192;9.790;2023-08-20T08:20:53;38.83;;;24.67;;
51298;SDS011;37382;45.192;9.790;2023-08-20T08:23:21;33.20;;;21.17;;
51298;SDS011;37382;45.192;9.790;2023-08-20T08:25:48;23.70;;;20.85;;
51298;SDS011;37382;45.192;9.790;2023-08-20T08:28:16;37.30;;;23.63;;
51298;SDS011;37382;45.192;9.790;2023-08-20T08:30:44;24.30;;;20.50;;
51298;SDS011;37382;45.192;9.790;2023-08-20T08:33:11;36.47;;;24.33;;
51298;SDS011;37382;45.192;9.790;2023-08-20T08:35:39;32.92;;;20.58;;
51298;SDS011;37382;45.192;9.790;2023-08-20T08:38:07;32.38;;;24.40;;
51298;SDS011;37382;45.192;9.790;2023-08-20T08:40:35;34.25;;;22.98;;
51298;SDS011;37382;45.192;9.790;2023-08-20T08:43:03;29.92;;;20.77;;
51298;SDS011;37382;45.192;9.790;2023-08-20T08:45:32;33.00;;;18.40;;
51298;SDS011;37382;45.192;9.790;2023-08-20T08:48:02;21.50;;;17.08;;
51298;SDS011;37382;45.192;9.790;2023-08-20T08:50:31;27.70;;;17.92;;
51298;SDS011;37382;45.192;9.790;2023-08-20T08:53:00;32.53;;;18.45;;
51298;SDS011;37382;45.192;9.790;2023-08-20T08:55:28;28.88;;;19.55;;
51298;SDS011;37382;45.192;9.790;2023-08-20T08:57:56;27.67;;;15.95;;
51298;SDS011;37382;45.192;9.790;2023-08-20T09:00:23;24.38;;;18.30;;
51298;SDS011;37382;45.192;9.790;2023-08-20T09:02:51;26.17;;;15.38;;
51298;SDS011;37382;45.192;9.790;2023-08-20T09:05:19;25.73;;;17.70;;
51298;SDS011;37382;45.192;9.790;2023-08-20T09:07:46;34.33;;;17.20;;
51298;SDS011;37382;45.192;9.790;2023-08-20T09:10:16;32.22;;;15.85;;
51298;SDS011;37382;45.192;9.790;2023-08-20T09:12:45;21.00;;;14.85;;
51298;SDS011;37382;45.192;9.790;2023-08-20T09:15:16;28.30;;;16.60;;
51298;SDS011;37382;45.192;9.790;2023-08-20T09:17:44;24.58;;;15.63;;
51298;SDS011;37382;45.192;9.790;2023-08-20T09:20:11;21.25;;;16.60;;
51298;SDS011;37382;45.192;9.790;2023-08-20T09:22:39;26.50;;;16.05;;
51298;SDS011;37382;45.192;9.790;2023-08-20T09:25:06;22.45;;;15.95;;
51298;SDS011;37382;45.192;9.790;2023-08-20T09:27:38;23.52;;;14.38;;
51298;SDS011;37382;45.192;9.790;2023-08-20T09:30:09;22.35;;;13.07;;
51298;SDS011;37382;45.192;9.790;2023-08-20T09:32:45;17.25;;;13.13;;
51298;SDS011;37382;45.192;9.790;2023-08-20T09:35:17;30.52;;;17.90;;
51298;SDS011;37382;45.192;9.790;2023-08-20T09:37:45;21.95;;;15.82;;
51298;SDS011;37382;45.192;9.790;2023-08-20T09:40:14;24.50;;;12.90;;
51298;SDS011;37382;45.192;9.790;2023-08-20T09:42:42;21.73;;;12.73;;
51298;SDS011;37382;45.192;9.790;2023-08-20T09:45:10;16.33;;;13.23;;
51298;SDS011;37382;45.192;9.790;2023-08-20T09:47:38;25.98;;;13.98;;
51298;SDS011;37382;45.192;9.790;2023-08-20T09:50:10;22.65;;;12.75;;
51298;SDS011;37382;45.192;9.790;2023-08-20T09:52:39;19.90;;;12.85;;
51298;SDS011;37382;45.192;9.790;2023-08-20T09:55:13;19.95;;;12.80;;
51298;SDS011;37382;45.192;9.790;2023-08-20T09:57:46;15.57;;;10.57;;
51298;SDS011;37382;45.192;9.790;2023-08-20T10:00:15;19.67;;;10.48;;
51298;SDS011;37382;45.192;9.790;2023-08-20T10:02:43;14.13;;;10.50;;
51298;SDS011;37382;45.192;9.790;2023-08-20T10:05:12;24.00;;;11.43;;
51298;SDS011;37382;45.192;9.790;2023-08-20T10:07:42;14.90;;;9.90;;
51298;SDS011;37382;45.192;9.790;2023-08-20T10:10:10;29.20;;;10.95;;
51298;SDS011;37382;45.192;9.790;2023-08-20T10:12:40;24.73;;;9.95;;
51298;SDS011;37382;45.192;9.790;2023-08-20T10:15:09;19.73;;;9.80;;
51298;SDS011;37382;45.192;9.790;2023-08-20T10:17:39;14.98;;;10.13;;
51298;SDS011;37382;45.192;9.790;2023-08-20T10:20:09;18.53;;;10.60;;
51298;SDS011;37382;45.192;9.790;2023-08-20T10:22:38;25.70;;;10.23;;
51298;SDS011;37382;45.192;9.790;2023-08-20T10:25:11;12.88;;;9.82;;
51298;SDS011;37382;45.192;9.790;2023-08-20T10:27:48;16.15;;;10.52;;
51298;SDS011;37382;45.192;9.790;2023-08-20T10:30:16;15.13;;;10.15;;
51298;SDS011;37382;45.192;9.790;2023-08-20T10:32:48;16.63;;;8.63;;
51298;SDS011;37382;45.192;9.790;2023-08-20T10:35:23;10.77;;;9.20;;
51298;SDS011;37382;45.192;9.790;2023-08-20T10:38:12;9.82;;;8.48;;
51298;SDS011;37382;45.192;9.790;2023-08-20T10:40:55;9.85;;;8.00;;
51298;SDS011;37382;45.192;9.790;2023-08-20T10:43:32;16.33;;;8.90;;
51298;SDS011;37382;45.192;9.790;2023-08-20T10:46:17;10.70;;;8.25;;
51298;SDS011;37382;45.192;9.790;2023-08-20T10:49:07;15.60;;;7.78;;
51298;SDS011;37382;45.192;9.790;2023-08-20T10:51:35;10.82;;;7.85;;
51298;SDS011;37382;45.192;9.790;2023-08-20T10:54:05;9.33;;;7.83;;
51298;SDS011;37382;45.192;9.790;2023-08-20T10:56:38;13.35;;;7.18;;
51298;SDS011;37382;45.192;9.790;2023-08-20T10:59:17;13.35;;;7.53;;
51298;SDS011;37382;45.192;9.790;2023-08-20T11:01:55;18.80;;;7.63;;
51298;SDS011;37382;45.192;9.790;2023-08-20T11:04:25;16.33;;;7.07;;
51298;SDS011;37382;45.192;9.790;2023-08-20T11:06:56;9.55;;;7.65;;
51298;SDS011;37382;45.192;9.790;2023-08-20T11:09:25;12.50;;;7.30;;
51298;SDS011;37382;45.192;9.790;2023-08-20T11:11:55;8.50;;;6.70;;
51298;SDS011;37382;45.192;9.790;2023-08-20T11:14:24;10.93;;;7.13;;
51298;SDS011;37382;45.192;9.790;2023-08-20T11:16:51;12.48;;;7.22;;
51298;SDS011;37382;45.192;9.790;2023-08-20T11:19:20;12.60;;;7.07;;
51298;SDS011;37382;45.192;9.790;2023-08-20T11:21:50;15.25;;;7.82;;
51298;SDS011;37382;45.192;9.790;2023-08-20T11:24:18;12.70;;;7.07;;
51298;SDS011;37382;45.192;9.790;2023-08-20T11:26:47;9.68;;;6.70;;
51298;SDS011;37382;45.192;9.790;2023-08-20T11:29:15;11.32;;;6.82;;
51298;SDS011;37382;45.192;9.790;2023-08-20T11:31:48;8.88;;;6.47;;
51298;SDS011;37382;45.192;9.790;2023-08-20T11:34:20;8.07;;;6.57;;
51298;SDS011;37382;45.192;9.790;2023-08-20T11:36:48;17.85;;;7.43;;
51298;SDS011;37382;45.192;9.790;2023-08-20T11:39:16;11.98;;;6.60;;
51298;SDS011;37382;45.192;9.790;2023-08-20T11:41:44;11.38;;;6.57;;
51298;SDS011;37382;45.192;9.790;2023-08-20T11:44:18;17.95;;;7.60;;
51298;SDS011;37382;45.192;9.790;2023-08-20T11:46:48;14.95;;;7.03;;
51298;SDS011;37382;45.192;9.790;2023-08-20T11:49:16;14.85;;;7.20;;
51298;SDS011;37382;45.192;9.790;2023-08-20T11:51:46;11.27;;;6.82;;
51298;SDS011;37382;45.192;9.790;2023-08-20T11:54:16;9.07;;;6.45;;
51298;SDS011;37382;45.192;9.790;2023-08-20T11:59:14;10.20;;;5.57;;
51298;SDS011;37382;45.192;9.790;2023-08-20T12:01:42;21.27;;;7.18;;
51298;SDS011;37382;45.192;9.790;2023-08-20T12:04:10;10.07;;;7.82;;
51298;SDS011;37382;45.192;9.790;2023-08-20T12:06:38;7.05;;;5.82;;
51298;SDS011;37382;45.192;9.790;2023-08-20T12:09:18;14.13;;;6.50;;
51298;SDS011;37382;45.192;9.790;2023-08-20T12:11:48;10.23;;;5.60;;
51298;SDS011;37382;45.192;9.790;2023-08-20T12:14:18;10.02;;;6.00;;
51298;SDS011;37382;45.192;9.790;2023-08-20T12:16:46;8.73;;;5.88;;
51298;SDS011;37382;45.192;9.790;2023-08-20T12:19:13;10.80;;;6.25;;
51298;SDS011;37382;45.192;9.790;2023-08-20T12:21:41;7.78;;;6.45;;
51298;SDS011;37382;45.192;9.790;2023-08-20T12:24:10;9.98;;;6.70;;
51298;SDS011;37382;45.192;9.790;2023-08-20T12:26:38;12.95;;;6.70;;
51298;SDS011;37382;45.192;9.790;2023-08-20T12:29:07;14.57;;;6.85;;
51298;SDS011;37382;45.192;9.790;2023-08-20T12:31:35;10.60;;;6.68;;
51298;SDS011;37382;45.192;9.790;2023-08-20T12:34:03;10.63;;;6.57;;
51298;SDS011;37382;45.192;9.790;2023-08-20T12:36:30;11.13;;;6.40;;
51298;SDS011;37382;45.192;9.790;2023-08-20T12:38:58;11.25;;;5.43;;
51298;SDS011;37382;45.192;9.790;2023-08-20T12:41:26;10.43;;;5.40;;
51298;SDS011;37382;45.192;9.790;2023-08-20T12:43:54;8.75;;;5.38;;
51298;SDS011;37382;45.192;9.790;2023-08-20T12:46:21;10.13;;;5.45;;
51298;SDS011;37382;45.192;9.790;2023-08-20T12:48:49;7.53;;;4.82;;
51298;SDS011;37382;45.192;9.790;2023-08-20T12:51:17;5.10;;;4.60;;
51298;SDS011;37382;45.192;9.790;2023-08-20T12:53:44;13.02;;;5.80;;
51298;SDS011;37382;45.192;9.790;2023-08-20T12:56:12;6.85;;;5.07;;
51298;SDS011;37382;45.192;9.790;2023-08-20T12:58:41;7.93;;;4.60;;
51298;SDS011;37382;45.192;9.790;2023-08-20T13:01:08;5.65;;;4.97;;
51298;SDS011;37382;45.192;9.790;2023-08-20T13:03:37;7.57;;;4.63;;
51298;SDS011;37382;45.192;9.790;2023-08-20T13:06:06;8.68;;;5.35;;
51298;SDS011;37382;45.192;9.790;2023-08-20T13:08:34;10.55;;;3.80;;
51298;SDS011;37382;45.192;9.790;2023-08-20T13:11:01;6.22;;;4.68;;
51298;SDS011;37382;45.192;9.790;2023-08-20T13:13:30;13.90;;;4.80;;
51298;SDS011;37382;45.192;9.790;2023-08-20T13:16:00;9.75;;;4.55;;
51298;SDS011;37382;45.192;9.790;2023-08-20T13:18:28;5.05;;;4.50;;
51298;SDS011;37382;45.192;9.790;2023-08-20T13:20:56;5.03;;;4.50;;
51298;SDS011;37382;45.192;9.790;2023-08-20T13:23:23;10.43;;;4.70;;
51298;SDS011;37382;45.192;9.790;2023-08-20T13:25:51;5.13;;;4.10;;
51298;SDS011;37382;45.192;9.790;2023-08-20T13:28:19;7.95;;;4.57;;
51298;SDS011;37382;45.192;9.790;2023-08-20T13:30:46;8.40;;;4.28;;
51298;SDS011;37382;45.192;9.790;2023-08-20T13:33:14;5.25;;;4.40;;
51298;SDS011;37382;45.192;9.790;2023-08-20T13:35:42;9.68;;;4.70;;
51298;SDS011;37382;45.192;9.790;2023-08-20T13:38:10;10.45;;;4.97;;
51298;SDS011;37382;45.192;9.790;2023-08-20T13:40:38;6.72;;;4.65;;
51298;SDS011;37382;45.192;9.790;2023-08-20T13:43:06;5.30;;;4.70;;
51298;SDS011;37382;45.192;9.790;2023-08-20T13:45:36;9.25;;;4.97;;
51298;SDS011;37382;45.192;9.790;2023-08-20T13:48:04;14.32;;;5.15;;
51298;SDS011;37382;45.192;9.790;2023-08-20T13:50:32;6.20;;;5.05;;
51298;SDS011;37382;45.192;9.790;2023-08-20T13:53:00;8.30;;;4.20;;
51298;SDS011;37382;45.192;9.790;2023-08-20T13:55:28;8.18;;;4.95;;
51298;SDS011;37382;45.192;9.790;2023-08-20T13:57:58;6.72;;;4.60;;
51298;SDS011;37382;45.192;9.790;2023-08-20T14:00:25;14.23;;;4.85;;
51298;SDS011;37382;45.192;9.790;2023-08-20T14:02:53;14.13;;;4.85;;
51298;SDS011;37382;45.192;9.790;2023-08-20T14:05:21;7.93;;;4.90;;
51298;SDS011;37382;45.192;9.790;2023-08-20T14:07:49;10.35;;;4.68;;
51298;SDS011;37382;45.192;9.790;2023-08-20T14:10:17;14.48;;;5.15;;
51298;SDS011;37382;45.192;9.790;2023-08-20T14:12:44;8.90;;;5.75;;
51298;SDS011;37382;45.192;9.790;2023-08-20T14:15:11;8.38;;;5.38;;
51298;SDS011;37382;45.192;9.790;2023-08-20T14:17:39;10.40;;;4.80;;
51298;SDS011;37382;45.192;9.790;2023-08-20T14:20:07;10.90;;;4.82;;
51298;SDS011;37382;45.192;9.790;2023-08-20T14:22:35;6.15;;;4.80;;
51298;SDS011;37382;45.192;9.790;2023-08-20T14:25:05;9.95;;;5.47;;
51298;SDS011;37382;45.192;9.790;2023-08-20T14:27:33;6.65;;;4.65;;
51298;SDS011;37382;45.192;9.790;2023-08-20T14:30:01;9.73;;;4.95;;
51298;SDS011;37382;45.192;9.790;2023-08-20T14:32:29;10.57;;;5.13;;
51298;SDS011;37382;45.192;9.790;2023-08-20T14:34:57;11.15;;;4.65;;
51298;SDS011;37382;45.192;9.790;2023-08-20T14:37:26;22.48;;;5.32;;
51298;SDS011;37382;45.192;9.790;2023-08-20T14:39:53;10.35;;;5.00;;
51298;SDS011;37382;45.192;9.790;2023-08-20T14:42:21;6.93;;;4.53;;
51298;SDS011;37382;45.192;9.790;2023-08-20T14:44:48;7.82;;;5.18;;
51298;SDS011;37382;45.192;9.790;2023-08-20T14:47:15;6.97;;;4.90;;
51298;SDS011;37382;45.192;9.790;2023-08-20T14:49:43;7.05;;;4.40;;
51298;SDS011;37382;45.192;9.790;2023-08-20T14:52:11;8.68;;;4.45;;
51298;SDS011;37382;45.192;9.790;2023-08-20T14:54:46;7.90;;;4.53;;